createdAt,value
2022-10-05T00:00:21.725Z,12.88
2022-10-05T00:02:49.557Z,12.85
2022-10-05T00:05:27.360Z,12.79
2022-10-05T00:07:56.602Z,12.77
2022-10-05T00:10:23.710Z,12.84
2022-10-05T00:12:50.252Z,12.79
2022-10-05T00:15:20.703Z,12.67
2022-10-05T00:17:47.263Z,12.62
2022-10-05T00:20:18.238Z,12.63
2022-10-05T00:22:44.927Z,12.65
2022-10-05T00:25:15.802Z,12.71
2022-10-05T00:27:42.809Z,12.82
2022-10-05T00:30:17.889Z,13.02
2022-10-05T00:32:45.235Z,13.06
2022-10-05T00:35:13.692Z,13.11
2022-10-05T00:37:40.458Z,13.10
2022-10-05T00:40:44.501Z,12.92
2022-10-05T00:43:19.996Z,12.79
2022-10-05T00:46:00.430Z,12.79
2022-10-05T00:49:15.135Z,12.72
2022-10-05T00:51:50.295Z,12.68
2022-10-05T00:54:38.232Z,12.70
2022-10-05T00:57:26.305Z,12.63
2022-10-05T01:00:17.473Z,12.60
2022-10-05T01:03:28.652Z,12.62
2022-10-05T01:06:17.053Z,12.53
2022-10-05T01:09:16.116Z,12.47
2022-10-05T01:11:52.465Z,12.26
2022-10-05T01:14:29.927Z,12.15
2022-10-05T01:17:05.968Z,11.99
2022-10-05T01:20:00.550Z,11.86
2022-10-05T01:22:38.837Z,11.65
2022-10-05T01:25:21.228Z,11.53
2022-10-05T01:28:17.077Z,11.42
2022-10-05T01:30:53.650Z,11.26
2022-10-05T01:33:27.420Z,11.25
2022-10-05T01:36:21.392Z,11.25
2022-10-05T01:39:14.482Z,11.14
2022-10-05T01:41:56.646Z,10.91
2022-10-05T01:44:39.142Z,10.79
2022-10-05T01:47:24.375Z,10.70
2022-10-05T01:50:07.869Z,10.63
2022-10-05T01:52:48.656Z,10.59
2022-10-05T01:55:15.208Z,10.52
2022-10-05T01:58:06.086Z,10.39
2022-10-05T02:00:39.713Z,10.34
2022-10-05T02:03:18.259Z,10.32
2022-10-05T02:05:52.426Z,10.23
2022-10-05T02:08:27.488Z,10.17
2022-10-05T02:11:04.567Z,10.02
2022-10-05T02:13:35.303Z,9.93
2022-10-05T02:16:07.508Z,9.83
2022-10-05T02:18:47.209Z,9.71
2022-10-05T02:21:14.251Z,9.63
2022-10-05T02:23:45.076Z,9.56
2022-10-05T02:26:12.713Z,9.58
2022-10-05T02:28:51.274Z,9.50
2022-10-05T02:31:24.125Z,9.44
2022-10-05T02:33:50.763Z,9.39
2022-10-05T02:36:23.916Z,9.40
2022-10-05T02:38:50.375Z,9.29
2022-10-05T02:41:32.199Z,9.23
2022-10-05T02:44:10.897Z,9.27
2022-10-05T02:46:43.271Z,9.21
2022-10-05T02:49:47.613Z,9.16
2022-10-05T02:52:26.879Z,9.13
2022-10-05T02:55:07.098Z,9.12
2022-10-05T02:57:47.260Z,9.07
2022-10-05T03:00:18.318Z,9.05
2022-10-05T03:02:55.786Z,9.10
2022-10-05T03:05:26.188Z,9.42
2022-10-05T03:08:01.095Z,9.57
2022-10-05T03:10:46.011Z,9.64
2022-10-05T03:13:33.957Z,9.61
2022-10-05T03:16:25.069Z,9.64
2022-10-05T03:19:27.360Z,9.63
2022-10-05T03:22:15.817Z,9.60
2022-10-05T03:25:20.020Z,9.58
2022-10-05T03:27:58.041Z,9.51
2022-10-05T03:30:26.691Z,9.43
2022-10-05T03:33:15.159Z,9.38
2022-10-05T03:36:16.985Z,9.32
2022-10-05T03:38:50.209Z,9.32
2022-10-05T03:41:40.102Z,9.31
2022-10-05T03:44:16.693Z,9.48
2022-10-05T03:47:11.687Z,9.74
2022-10-05T03:49:57.474Z,10.09
2022-10-05T03:52:38.334Z,10.36
2022-10-05T03:55:18.583Z,10.53
2022-10-05T03:57:47.495Z,10.31
2022-10-05T04:00:17.757Z,10.05
2022-10-05T04:02:58.074Z,9.87
2022-10-05T04:05:32.630Z,9.70
2022-10-05T04:08:02.827Z,9.63
2022-10-05T04:11:20.522Z,9.53
2022-10-05T04:13:52.798Z,9.45
2022-10-05T04:16:31.068Z,9.34
2022-10-05T04:19:19.417Z,9.30
2022-10-05T04:21:59.499Z,9.11
2022-10-05T04:24:36.770Z,9.03
2022-10-05T04:27:13.561Z,9.11
2022-10-05T04:29:42.787Z,9.07
2022-10-05T04:32:22.611Z,9.02
2022-10-05T04:35:27.094Z,9.04
2022-10-05T04:38:11.755Z,9.02
2022-10-05T04:41:17.245Z,9.52
2022-10-05T04:43:59.239Z,10.11
2022-10-05T04:46:42.903Z,10.32
2022-10-05T04:49:31.512Z,10.42
2022-10-05T04:52:10.201Z,10.24
2022-10-05T04:55:04.825Z,10.05
2022-10-05T04:57:53.236Z,9.83
2022-10-05T05:00:25.462Z,9.75
2022-10-05T05:03:03.642Z,9.73
2022-10-05T05:05:58.693Z,9.70
2022-10-05T05:08:57.465Z,9.64
2022-10-05T05:12:00.427Z,9.56
2022-10-05T05:14:55.894Z,9.38
2022-10-05T05:17:35.376Z,9.25
2022-10-05T05:20:39.181Z,9.19
2022-10-05T05:23:30.789Z,9.11
2022-10-05T05:26:15.189Z,9.02
2022-10-05T05:29:02.658Z,9.04
2022-10-05T05:31:50.171Z,9.03
2022-10-05T05:34:36.647Z,8.90
2022-10-05T05:38:00.760Z,8.88
2022-10-05T05:40:42.267Z,8.84
2022-10-05T05:43:35.115Z,8.77
2022-10-05T05:46:16.938Z,8.88
2022-10-05T05:48:47.315Z,8.79
2022-10-05T05:51:23.491Z,8.77
2022-10-05T05:54:00.002Z,8.70
2022-10-05T05:56:42.566Z,8.70
2022-10-05T05:59:32.899Z,8.67
2022-10-05T06:02:16.209Z,8.66
2022-10-05T06:04:52.504Z,8.69
2022-10-05T06:07:29.462Z,8.70
2022-10-05T06:10:04.876Z,8.70
2022-10-05T06:12:44.253Z,8.75
2022-10-05T06:15:55.336Z,8.84
2022-10-05T06:18:23.239Z,8.91
2022-10-05T06:21:11.332Z,9.06
2022-10-05T06:23:48.974Z,9.18
2022-10-05T06:26:29.037Z,9.30
2022-10-05T06:29:04.040Z,9.39
2022-10-05T06:32:13.665Z,9.51
2022-10-05T06:35:06.237Z,9.62
2022-10-05T06:37:56.067Z,9.75
2022-10-05T06:40:25.578Z,9.94
2022-10-05T06:43:10.859Z,10.09
2022-10-05T06:45:40.558Z,10.23
2022-10-05T06:48:22.753Z,10.45
2022-10-05T06:51:15.195Z,10.69
2022-10-05T06:54:14.522Z,10.99
2022-10-05T06:56:59.961Z,11.38
2022-10-05T06:59:46.945Z,11.89
2022-10-05T07:02:31.782Z,12.33
2022-10-05T07:05:17.267Z,12.72
2022-10-05T07:07:46.800Z,12.93
2022-10-05T07:10:32.351Z,13.23
2022-10-05T07:13:14.079Z,13.56
2022-10-05T07:16:08.227Z,13.92
2022-10-05T07:19:07.849Z,14.25
2022-10-05T07:21:39.559Z,14.49
2022-10-05T07:24:47.546Z,14.63
2022-10-05T07:27:19.820Z,14.80
2022-10-05T07:30:04.830Z,15.09
2022-10-05T07:32:40.519Z,15.48
2022-10-05T07:35:30.580Z,15.87
2022-10-05T07:38:05.625Z,16.16
2022-10-05T07:40:45.067Z,16.47
2022-10-05T07:43:45.246Z,16.84
2022-10-05T07:46:26.758Z,17.30
2022-10-05T07:49:00.739Z,17.65
2022-10-05T07:51:41.361Z,17.70
2022-10-05T07:54:14.254Z,17.46
2022-10-05T07:56:44.092Z,17.67
2022-10-05T07:59:21.987Z,17.80
2022-10-05T08:01:54.808Z,18.14
2022-10-05T08:04:27.786Z,18.55
2022-10-05T08:06:59.948Z,18.72
2022-10-05T08:09:35.635Z,18.80
2022-10-05T08:12:37.127Z,19.13
2022-10-05T08:15:14.346Z,19.30
2022-10-05T08:17:50.115Z,19.37
2022-10-05T08:20:32.511Z,19.21
2022-10-05T08:23:20.912Z,19.16
2022-10-05T08:26:06.754Z,19.09
2022-10-05T08:28:39.313Z,19.34
2022-10-05T08:31:29.856Z,19.80
2022-10-05T08:34:35.344Z,20.24
2022-10-05T08:37:13.496Z,20.13
2022-10-05T08:39:49.233Z,20.13
2022-10-05T08:42:35.128Z,19.94
2022-10-05T08:45:21.482Z,19.98
2022-10-05T08:47:57.838Z,19.82
2022-10-05T08:50:59.418Z,19.70
2022-10-05T08:53:32.042Z,19.84
2022-10-05T08:56:27.814Z,20.06
2022-10-05T08:59:10.559Z,20.55
2022-10-05T09:02:02.249Z,20.26
2022-10-05T09:05:06.549Z,20.61
2022-10-05T09:08:03.339Z,21.27
2022-10-05T09:10:45.244Z,21.27
2022-10-05T09:13:31.450Z,21.04
2022-10-05T09:16:27.287Z,21.27
2022-10-05T09:18:59.906Z,21.43
2022-10-05T09:21:54.077Z,21.54
2022-10-05T09:24:28.499Z,21.94
2022-10-05T09:27:21.180Z,21.99
2022-10-05T09:29:50.634Z,22.00
2022-10-05T09:32:55.417Z,22.36
2022-10-05T09:35:25.496Z,22.36
2022-10-05T09:38:11.557Z,22.54
2022-10-05T09:41:11.881Z,22.74
2022-10-05T09:43:44.548Z,22.99
2022-10-05T09:46:23.415Z,22.77
2022-10-05T09:49:24.004Z,22.76
2022-10-05T09:52:21.457Z,22.36
2022-10-05T09:55:22.091Z,22.34
2022-10-05T09:58:17.247Z,23.05
2022-10-05T10:01:22.126Z,23.54
2022-10-05T10:04:26.842Z,23.59
2022-10-05T10:07:16.895Z,23.56
2022-10-05T10:10:18.044Z,23.21
2022-10-05T10:13:06.514Z,23.05
2022-10-05T10:16:12.341Z,23.34
2022-10-05T10:18:57.728Z,23.41
2022-10-05T10:21:42.403Z,23.61
2022-10-05T10:24:30.764Z,22.39
2022-10-05T10:27:05.617Z,22.14
2022-10-05T10:29:47.918Z,22.17
2022-10-05T10:32:52.277Z,22.40
2022-10-05T10:35:31.082Z,22.66
2022-10-05T10:38:06.775Z,22.88
2022-10-05T10:41:04.527Z,23.34
2022-10-05T10:43:59.061Z,23.44
2022-10-05T10:46:44.857Z,24.16
2022-10-05T10:49:20.533Z,24.17
2022-10-05T10:51:59.286Z,24.16
2022-10-05T10:54:46.940Z,24.21
2022-10-05T10:57:36.230Z,23.93
2022-10-05T11:00:15.816Z,23.92
2022-10-05T11:03:13.353Z,23.45
2022-10-05T11:06:17.823Z,23.78
2022-10-05T11:09:12.284Z,24.16
2022-10-05T11:11:51.786Z,23.89
2022-10-05T11:15:05.633Z,24.16
2022-10-05T11:17:49.844Z,23.76
2022-10-05T11:20:40.907Z,24.07
2022-10-05T11:23:38.804Z,23.50
2022-10-05T11:26:17.738Z,23.57
2022-10-05T11:29:23.071Z,23.33
2022-10-05T11:32:18.170Z,23.14
2022-10-05T11:35:05.442Z,23.11
2022-10-05T11:37:50.285Z,22.86
2022-10-05T11:40:54.012Z,23.09
2022-10-05T11:44:08.886Z,23.33
2022-10-05T11:47:16.797Z,23.51
2022-10-05T11:50:10.731Z,23.27
2022-10-05T11:52:46.075Z,23.11
2022-10-05T11:55:32.967Z,22.90
2022-10-05T11:58:07.624Z,23.07
2022-10-05T12:00:42.614Z,22.93
2022-10-05T12:03:31.418Z,22.68
2022-10-05T12:06:17.045Z,22.39
2022-10-05T12:09:13.562Z,22.08
2022-10-05T12:11:46.154Z,22.00
2022-10-05T12:15:02.216Z,21.95
2022-10-05T12:17:46.980Z,21.94
2022-10-05T12:20:20.907Z,22.03
2022-10-05T12:22:56.554Z,22.32
2022-10-05T12:25:32.502Z,22.26
2022-10-05T12:28:05.386Z,22.02
2022-10-05T12:30:59.039Z,21.74
2022-10-05T12:33:52.326Z,21.97
2022-10-05T12:36:52.446Z,21.96
2022-10-05T12:39:27.336Z,21.87
2022-10-05T12:42:09.137Z,21.96
2022-10-05T12:44:44.706Z,22.01
2022-10-05T12:47:17.124Z,22.07
2022-10-05T12:49:55.500Z,21.95
2022-10-05T12:52:40.510Z,22.15
2022-10-05T12:55:13.515Z,21.98
2022-10-05T12:57:53.269Z,21.86
2022-10-05T13:00:23.109Z,21.83
2022-10-05T13:02:51.149Z,21.96
2022-10-05T13:05:46.966Z,21.58
2022-10-05T13:08:33.918Z,21.35
2022-10-05T13:11:28.088Z,21.15
2022-10-05T13:14:11.560Z,21.13
2022-10-05T13:16:55.380Z,21.04
2022-10-05T13:19:31.190Z,20.83
2022-10-05T13:22:19.844Z,20.97
2022-10-05T13:24:54.365Z,20.87
2022-10-05T13:27:27.944Z,20.81
2022-10-05T13:30:08.500Z,20.93
2022-10-05T13:32:46.414Z,20.92
2022-10-05T13:35:28.552Z,20.81
2022-10-05T13:38:29.940Z,20.66
2022-10-05T13:41:14.961Z,20.45
2022-10-05T13:43:49.199Z,20.53
2022-10-05T13:46:48.410Z,20.54
2022-10-05T13:49:21.623Z,20.53
2022-10-05T13:52:07.981Z,20.41
2022-10-05T13:54:34.448Z,20.19
2022-10-05T13:57:14.350Z,20.35
2022-10-05T13:59:53.853Z,20.20
2022-10-05T14:02:27.476Z,20.04
2022-10-05T14:05:17.720Z,20.08
2022-10-05T14:08:02.403Z,20.12
2022-10-05T14:10:37.511Z,20.11
2022-10-05T14:13:46.774Z,20.15
2022-10-05T14:16:13.469Z,20.17
2022-10-05T14:19:16.685Z,20.15
2022-10-05T14:21:50.295Z,20.16
2022-10-05T14:24:44.578Z,20.22
2022-10-05T14:27:28.510Z,20.11
2022-10-05T14:30:13.194Z,20.00
2022-10-05T14:33:17.130Z,19.91
2022-10-05T14:35:45.157Z,19.97
2022-10-05T14:38:29.920Z,19.91
2022-10-05T14:41:11.753Z,19.95
2022-10-05T14:43:38.798Z,19.82
2022-10-05T14:46:28.062Z,19.88
2022-10-05T14:49:21.931Z,19.80
2022-10-05T14:51:50.428Z,19.63
2022-10-05T14:54:35.247Z,19.71
2022-10-05T14:57:04.891Z,19.63
2022-10-05T14:59:56.416Z,19.59
2022-10-05T15:02:57.067Z,19.55
2022-10-05T15:05:31.525Z,19.46
2022-10-05T15:08:09.684Z,19.44
2022-10-05T15:10:55.080Z,19.32
2022-10-05T15:13:25.853Z,19.40
2022-10-05T15:15:55.582Z,19.26
2022-10-05T15:18:38.433Z,19.26
2022-10-05T15:21:31.279Z,19.28
2022-10-05T15:24:03.325Z,19.25
2022-10-05T15:26:52.699Z,19.22
2022-10-05T15:29:27.245Z,19.16
2022-10-05T15:32:01.188Z,19.06
2022-10-05T15:34:33.793Z,19.05
2022-10-05T15:37:32.046Z,19.05
2022-10-05T15:40:03.679Z,19.07
2022-10-05T15:42:38.457Z,19.03
2022-10-05T15:45:53.064Z,19.00
2022-10-05T15:48:29.955Z,18.94
2022-10-05T15:51:15.455Z,18.86
2022-10-05T15:54:36.559Z,18.81
2022-10-05T15:57:16.586Z,18.85
2022-10-05T15:59:56.582Z,18.83
2022-10-05T16:02:30.018Z,18.79
2022-10-05T16:05:12.289Z,18.74
2022-10-05T16:08:04.382Z,18.64
2022-10-05T16:10:37.668Z,18.58
2022-10-05T16:13:05.012Z,18.59
2022-10-05T16:15:41.417Z,18.44
2022-10-05T16:18:31.354Z,18.44
2022-10-05T16:21:39.029Z,18.27
2022-10-05T16:24:26.097Z,18.19
2022-10-05T16:27:06.516Z,18.11
2022-10-05T16:29:35.979Z,17.98
2022-10-05T16:32:21.824Z,18.03
2022-10-05T16:35:08.744Z,17.96
2022-10-05T16:38:05.546Z,17.93
2022-10-05T16:40:41.530Z,17.83
2022-10-05T16:43:26.729Z,17.73
2022-10-05T16:46:31.201Z,17.74
2022-10-05T16:49:27.993Z,17.66
2022-10-05T16:52:01.475Z,17.57
2022-10-05T16:54:31.738Z,17.54
2022-10-05T16:57:11.183Z,17.48
2022-10-05T17:00:08.101Z,17.49
2022-10-05T17:03:10.108Z,17.37
2022-10-05T17:05:44.218Z,17.47
2022-10-05T17:08:33.487Z,17.32
2022-10-05T17:11:10.517Z,17.30
2022-10-05T17:13:52.282Z,17.25
2022-10-05T17:16:42.199Z,17.31
2022-10-05T17:19:22.291Z,17.18
2022-10-05T17:22:00.856Z,17.21
2022-10-05T17:24:49.328Z,17.22
2022-10-05T17:27:32.973Z,17.29
2022-10-05T17:30:27.269Z,17.25
2022-10-05T17:33:04.713Z,17.33
2022-10-05T17:35:50.892Z,17.32
2022-10-05T17:38:22.191Z,17.19
2022-10-05T17:41:05.598Z,17.21
2022-10-05T17:43:33.944Z,17.23
2022-10-05T17:46:03.159Z,17.17
2022-10-05T17:48:54.307Z,17.14
2022-10-05T17:52:02.331Z,17.19
2022-10-05T17:54:49.825Z,17.15
2022-10-05T17:57:27.817Z,17.17
2022-10-05T17:59:55.678Z,17.14
2022-10-05T18:02:38.573Z,17.19
2022-10-05T18:05:05.126Z,17.18
2022-10-05T18:07:36.184Z,17.27
2022-10-05T18:10:11.742Z,17.32
2022-10-05T18:12:50.900Z,17.27
2022-10-05T18:15:23.174Z,17.33
2022-10-05T18:17:53.092Z,17.29
2022-10-05T18:20:26.688Z,17.43
2022-10-05T18:23:09.614Z,17.35
2022-10-05T18:25:48.530Z,17.31
2022-10-05T18:28:21.065Z,17.31
2022-10-05T18:31:26.409Z,17.29
2022-10-05T18:34:08.109Z,17.31
2022-10-05T18:37:19.247Z,17.29
2022-10-05T18:40:24.138Z,17.29
2022-10-05T18:42:55.258Z,17.22
2022-10-05T18:45:49.318Z,17.30
2022-10-05T18:48:27.298Z,17.19
2022-10-05T18:51:10.132Z,17.24
2022-10-05T18:53:45.838Z,17.19
2022-10-05T18:56:29.500Z,17.26
2022-10-05T18:59:32.200Z,17.36
2022-10-05T19:02:15.111Z,17.28
2022-10-05T19:04:41.819Z,17.26
2022-10-05T19:07:17.575Z,17.20
2022-10-05T19:09:59.819Z,17.23
2022-10-05T19:12:50.869Z,17.22
2022-10-05T19:15:17.462Z,17.21
2022-10-05T19:17:54.801Z,17.48
2022-10-05T19:20:46.175Z,17.54
2022-10-05T19:23:19.597Z,17.58
2022-10-05T19:25:59.662Z,17.48
2022-10-05T19:28:50.568Z,17.65
2022-10-05T19:31:30.545Z,17.72
2022-10-05T19:34:16.666Z,17.72
2022-10-05T19:37:09.868Z,17.82
2022-10-05T19:39:53.650Z,17.77
2022-10-05T19:42:37.254Z,17.81
2022-10-05T19:45:03.781Z,17.86
2022-10-05T19:47:56.557Z,17.90
2022-10-05T19:50:23.057Z,17.74
2022-10-05T19:52:57.274Z,17.73
2022-10-05T19:55:34.630Z,17.89
2022-10-05T19:58:01.420Z,17.80
2022-10-05T20:00:34.621Z,17.80
2022-10-05T20:03:18.425Z,17.78
2022-10-05T20:05:45.959Z,17.83
2022-10-05T20:08:18.553Z,17.79
2022-10-05T20:10:46.603Z,17.93
2022-10-05T20:13:21.658Z,17.96
2022-10-05T20:16:51.970Z,17.93
2022-10-05T20:19:34.927Z,17.85
2022-10-05T20:22:23.182Z,17.84
2022-10-05T20:24:52.048Z,17.87
2022-10-05T20:27:36.820Z,17.76
2022-10-05T20:30:04.760Z,17.68
2022-10-05T20:32:31.607Z,17.66
2022-10-05T20:34:58.198Z,17.57
2022-10-05T20:37:25.057Z,17.66
2022-10-05T20:39:52.242Z,17.58
2022-10-05T20:42:20.427Z,17.53
2022-10-05T20:44:47.196Z,17.38
2022-10-05T20:47:13.914Z,17.43
2022-10-05T20:49:44.586Z,17.37
2022-10-05T20:52:15.166Z,17.42
2022-10-05T20:54:42.425Z,17.45
2022-10-05T20:57:09.672Z,17.36
2022-10-05T20:59:37.072Z,17.30
2022-10-05T21:02:04.279Z,17.19
2022-10-05T21:04:40.383Z,17.09
2022-10-05T21:07:07.853Z,17.02
2022-10-05T21:09:34.548Z,17.08
2022-10-05T21:12:01.512Z,17.02
2022-10-05T21:14:30.736Z,17.23
2022-10-05T21:16:57.522Z,17.26
2022-10-05T21:19:24.366Z,17.18
2022-10-05T21:21:51.218Z,17.20
2022-10-05T21:24:18.050Z,17.39
2022-10-05T21:26:45.421Z,17.32
2022-10-05T21:29:13.296Z,17.52
2022-10-05T21:31:40.613Z,17.61
2022-10-05T21:34:07.564Z,17.47
2022-10-05T21:36:34.900Z,17.42
2022-10-05T21:39:01.775Z,17.41
2022-10-05T21:41:28.575Z,17.45
2022-10-05T21:43:55.147Z,17.48
2022-10-05T21:46:25.863Z,17.54
2022-10-05T21:48:54.035Z,17.43
2022-10-05T21:51:24.081Z,17.44
2022-10-05T21:53:55.256Z,17.38
2022-10-05T21:56:24.610Z,17.31
2022-10-05T21:58:52.043Z,17.38
2022-10-05T22:01:22.464Z,17.21
2022-10-05T22:03:49.826Z,17.26
2022-10-05T22:06:16.423Z,17.31
2022-10-05T22:08:43.096Z,17.34
2022-10-05T22:11:12.873Z,17.38
2022-10-05T22:13:46.102Z,17.44
2022-10-05T22:16:14.044Z,17.28
2022-10-05T22:18:41.182Z,17.32
2022-10-05T22:21:11.354Z,17.34
2022-10-05T22:23:42.699Z,17.22
2022-10-05T22:26:12.651Z,17.14
2022-10-05T22:28:39.848Z,17.26
2022-10-05T22:31:08.056Z,17.30
2022-10-05T22:33:35.472Z,17.30
2022-10-05T22:36:02.160Z,17.20
2022-10-05T22:38:30.546Z,17.26
2022-10-05T22:40:57.900Z,17.23
2022-10-05T22:43:27.078Z,17.19
2022-10-05T22:45:54.473Z,17.17
2022-10-05T22:48:21.151Z,17.11
2022-10-05T22:50:48.022Z,17.17
2022-10-05T22:53:15.032Z,17.25
2022-10-05T22:55:41.546Z,17.18
2022-10-05T22:58:08.142Z,17.23
2022-10-05T23:00:57.032Z,17.06
2022-10-05T23:03:21.476Z,16.92
2022-10-05T23:05:48.137Z,16.97
2022-10-05T23:08:16.156Z,16.96
2022-10-05T23:10:43.509Z,16.97
2022-10-05T23:13:10.086Z,16.93
2022-10-05T23:15:36.627Z,16.92
2022-10-05T23:18:03.259Z,16.89
2022-10-05T23:20:29.863Z,16.87
2022-10-05T23:22:56.527Z,16.82
2022-10-05T23:25:23.093Z,16.69
2022-10-05T23:27:49.787Z,16.63
2022-10-05T23:30:16.420Z,16.51
2022-10-05T23:32:44.577Z,16.57
2022-10-05T23:35:12.742Z,16.48
2022-10-05T23:37:44.214Z,16.47
2022-10-05T23:40:13.245Z,16.62
2022-10-05T23:42:42.551Z,16.65
2022-10-05T23:45:11.110Z,16.61
2022-10-05T23:47:38.794Z,16.73
2022-10-05T23:50:07.103Z,16.76
2022-10-05T23:52:34.682Z,16.74
2022-10-05T23:55:02.610Z,16.76
2022-10-05T23:57:29.223Z,16.73
2022-10-05T23:59:56.448Z,16.79
